Buritirama, Brazil
Current Conditions -  °F | °C
As of 2:00 AM on Thursday 23 Oct 2014 (Local Time) from SBPL Reporting Station
Clear Clear  
Wind Chill: 77°   Ceiling: Unl
Heat Index: 79°   Visibility: 6mi
Dew Point: 64°   Wind: 9mph
Humidity: 65%   Direction: 150°SSE
Pressure: 30"   Gusts: NA
Location:  10.73°S, 43.65°W
Report Text: SBPL 230500Z 15008KT CAVOK 25/18 Q1016
Loading
Personal Weather Stations






























Interactive Weather Map
Tropical Storm Tracking
New forecast layout! Learn more

10-Day Weather Forecast

Advertisements
Track Severe Weather on mobile